sensor_id;sensor_type;location;lat;lon;timestamp;temperature;humidity
3332;DHT22;1678;50.94845400;5.30809100;2022-11-24T00:01:25;8.30;99.90
3332;DHT22;1678;50.94845400;5.30809100;2022-11-24T00:03:55;8.30;99.90
3332;DHT22;1678;50.94845400;5.30809100;2022-11-24T00:06:23;8.30;99.90
3332;DHT22;1678;50.94845400;5.30809100;2022-11-24T00:08:53;8.30;99.90
3332;DHT22;1678;50.94845400;5.30809100;2022-11-24T00:11:22;8.30;99.90
3332;DHT22;1678;50.94845400;5.30809100;2022-11-24T00:13:51;8.40;99.90
3332;DHT22;1678;50.94845400;5.30809100;2022-11-24T00:16:21;8.30;99.90
3332;DHT22;1678;50.94845400;5.30809100;2022-11-24T00:18:54;8.30;99.90
3332;DHT22;1678;50.94845400;5.30809100;2022-11-24T00:21:23;8.20;99.90
3332;DHT22;1678;50.94845400;5.30809100;2022-11-24T00:23:51;8.20;99.90
3332;DHT22;1678;50.94845400;5.30809100;2022-11-24T00:26:21;8.20;99.90
3332;DHT22;1678;50.94845400;5.30809100;2022-11-24T00:28:52;8.20;99.90
3332;DHT22;1678;50.94845400;5.30809100;2022-11-24T00:31:22;8.20;99.90
3332;DHT22;1678;50.94845400;5.30809100;2022-11-24T00:33:54;8.10;99.90
3332;DHT22;1678;50.94845400;5.30809100;2022-11-24T00:36:23;8.20;99.90
3332;DHT22;1678;50.94845400;5.30809100;2022-11-24T00:38:52;8.10;99.90
3332;DHT22;1678;50.94845400;5.30809100;2022-11-24T00:41:21;8.20;99.90
3332;DHT22;1678;50.94845400;5.30809100;2022-11-24T00:43:49;8.20;99.90
3332;DHT22;1678;50.94845400;5.30809100;2022-11-24T00:46:17;8.30;99.90
3332;DHT22;1678;50.94845400;5.30809100;2022-11-24T00:48:46;8.30;99.90
3332;DHT22;1678;50.94845400;5.30809100;2022-11-24T00:51:17;8.30;99.90
3332;DHT22;1678;50.94845400;5.30809100;2022-11-24T00:53:45;8.40;99.90
3332;DHT22;1678;50.94845400;5.30809100;2022-11-24T00:56:14;8.30;99.90
3332;DHT22;1678;50.94845400;5.30809100;2022-11-24T00:58:42;8.30;99.90
3332;DHT22;1678;50.94845400;5.30809100;2022-11-24T01:01:14;8.40;99.90
3332;DHT22;1678;50.94845400;5.30809100;2022-11-24T01:03:43;8.30;99.90
3332;DHT22;1678;50.94845400;5.30809100;2022-11-24T01:06:15;8.40;99.90
3332;DHT22;1678;50.94845400;5.30809100;2022-11-24T01:08:44;8.40;99.90
3332;DHT22;1678;50.94845400;5.30809100;2022-11-24T01:11:15;8.40;99.90
3332;DHT22;1678;50.94845400;5.30809100;2022-11-24T01:13:44;8.40;99.90
3332;DHT22;1678;50.94845400;5.30809100;2022-11-24T01:16:15;8.40;99.90
3332;DHT22;1678;50.94845400;5.30809100;2022-11-24T01:18:43;8.40;99.90
3332;DHT22;1678;50.94845400;5.30809100;2022-11-24T01:21:12;8.30;99.90
3332;DHT22;1678;50.94845400;5.30809100;2022-11-24T01:23:41;8.20;99.90
3332;DHT22;1678;50.94845400;5.30809100;2022-11-24T01:26:11;8.20;99.90
3332;DHT22;1678;50.94845400;5.30809100;2022-11-24T01:28:40;8.20;99.90
3332;DHT22;1678;50.94845400;5.30809100;2022-11-24T01:31:13;8.20;99.90
3332;DHT22;1678;50.94845400;5.30809100;2022-11-24T01:33:42;8.20;99.90
3332;DHT22;1678;50.94845400;5.30809100;2022-11-24T01:36:10;8.20;99.90
3332;DHT22;1678;50.94845400;5.30809100;2022-11-24T01:38:38;8.20;99.90
3332;DHT22;1678;50.94845400;5.30809100;2022-11-24T01:41:11;8.20;99.90
3332;DHT22;1678;50.94845400;5.30809100;2022-11-24T01:43:40;8.20;99.90
3332;DHT22;1678;50.94845400;5.30809100;2022-11-24T01:46:14;8.20;99.90
3332;DHT22;1678;50.94845400;5.30809100;2022-11-24T01:48:47;8.30;99.90
3332;DHT22;1678;50.94845400;5.30809100;2022-11-24T01:51:21;8.30;99.90
3332;DHT22;1678;50.94845400;5.30809100;2022-11-24T01:53:53;8.40;99.90
3332;DHT22;1678;50.94845400;5.30809100;2022-11-24T01:56:24;8.30;99.90
3332;DHT22;1678;50.94845400;5.30809100;2022-11-24T01:58:55;8.40;99.90
3332;DHT22;1678;50.94845400;5.30809100;2022-11-24T02:01:24;8.40;99.90
3332;DHT22;1678;50.94845400;5.30809100;2022-11-24T02:03:52;8.40;99.90
3332;DHT22;1678;50.94845400;5.30809100;2022-11-24T02:06:24;8.50;99.90
3332;DHT22;1678;50.94845400;5.30809100;2022-11-24T02:08:57;8.60;99.90
3332;DHT22;1678;50.94845400;5.30809100;2022-11-24T02:11:33;8.50;99.90
3332;DHT22;1678;50.94845400;5.30809100;2022-11-24T02:14:03;8.50;99.90
3332;DHT22;1678;50.94845400;5.30809100;2022-11-24T02:16:32;8.50;99.90
3332;DHT22;1678;50.94845400;5.30809100;2022-11-24T02:19:01;8.40;99.90
3332;DHT22;1678;50.94845400;5.30809100;2022-11-24T02:21:30;8.50;99.90
3332;DHT22;1678;50.94845400;5.30809100;2022-11-24T02:24:02;8.50;99.90
3332;DHT22;1678;50.94845400;5.30809100;2022-11-24T02:26:43;8.50;99.90
3332;DHT22;1678;50.94845400;5.30809100;2022-11-24T02:29:13;8.50;99.90
3332;DHT22;1678;50.94845400;5.30809100;2022-11-24T02:31:45;8.50;99.90
3332;DHT22;1678;50.94845400;5.30809100;2022-11-24T02:34:14;8.50;99.90
3332;DHT22;1678;50.94845400;5.30809100;2022-11-24T02:36:42;8.60;99.90
3332;DHT22;1678;50.94845400;5.30809100;2022-11-24T02:39:11;8.60;99.90
3332;DHT22;1678;50.94845400;5.30809100;2022-11-24T02:41:42;8.50;99.90
3332;DHT22;1678;50.94845400;5.30809100;2022-11-24T02:44:12;8.50;99.90
3332;DHT22;1678;50.94845400;5.30809100;2022-11-24T02:46:42;8.40;99.90
3332;DHT22;1678;50.94845400;5.30809100;2022-11-24T02:49:10;8.40;99.90
3332;DHT22;1678;50.94845400;5.30809100;2022-11-24T02:51:38;8.50;99.90
3332;DHT22;1678;50.94845400;5.30809100;2022-11-24T02:54:06;8.50;99.90
3332;DHT22;1678;50.94845400;5.30809100;2022-11-24T02:56:34;8.50;99.90
3332;DHT22;1678;50.94845400;5.30809100;2022-11-24T02:59:03;8.60;99.90
3332;DHT22;1678;50.94845400;5.30809100;2022-11-24T03:01:31;8.50;99.90
3332;DHT22;1678;50.94845400;5.30809100;2022-11-24T03:04:00;8.50;99.90
3332;DHT22;1678;50.94845400;5.30809100;2022-11-24T03:06:28;8.40;99.90
3332;DHT22;1678;50.94845400;5.30809100;2022-11-24T03:08:56;8.40;99.90
3332;DHT22;1678;50.94845400;5.30809100;2022-11-24T03:11:24;8.40;99.90
3332;DHT22;1678;50.94845400;5.30809100;2022-11-24T03:13:52;8.40;99.90
3332;DHT22;1678;50.94845400;5.30809100;2022-11-24T03:16:21;8.30;99.90
3332;DHT22;1678;50.94845400;5.30809100;2022-11-24T03:18:49;8.40;99.90
3332;DHT22;1678;50.94845400;5.30809100;2022-11-24T03:21:18;8.40;99.90
3332;DHT22;1678;50.94845400;5.30809100;2022-11-24T03:23:46;8.50;99.90
3332;DHT22;1678;50.94845400;5.30809100;2022-11-24T03:26:16;8.50;99.90
3332;DHT22;1678;50.94845400;5.30809100;2022-11-24T03:28:44;8.50;99.90
3332;DHT22;1678;50.94845400;5.30809100;2022-11-24T03:31:13;8.60;99.90
3332;DHT22;1678;50.94845400;5.30809100;2022-11-24T03:33:42;8.50;99.90
3332;DHT22;1678;50.94845400;5.30809100;2022-11-24T03:36:10;8.60;99.90
3332;DHT22;1678;50.94845400;5.30809100;2022-11-24T03:38:38;8.70;99.90
3332;DHT22;1678;50.94845400;5.30809100;2022-11-24T03:41:06;8.80;99.90
3332;DHT22;1678;50.94845400;5.30809100;2022-11-24T03:43:34;8.80;99.90
3332;DHT22;1678;50.94845400;5.30809100;2022-11-24T03:46:09;8.80;99.90
3332;DHT22;1678;50.94845400;5.30809100;2022-11-24T03:48:38;8.90;99.90
3332;DHT22;1678;50.94845400;5.30809100;2022-11-24T03:51:09;8.90;99.90
3332;DHT22;1678;50.94845400;5.30809100;2022-11-24T03:53:37;8.80;99.90
3332;DHT22;1678;50.94845400;5.30809100;2022-11-24T03:56:05;8.90;99.90
3332;DHT22;1678;50.94845400;5.30809100;2022-11-24T03:58:33;9.00;99.90
3332;DHT22;1678;50.94845400;5.30809100;2022-11-24T04:01:01;8.90;99.90
3332;DHT22;1678;50.94845400;5.30809100;2022-11-24T04:03:30;8.90;99.90
3332;DHT22;1678;50.94845400;5.30809100;2022-11-24T04:05:58;9.00;99.90
3332;DHT22;1678;50.94845400;5.30809100;2022-11-24T04:08:27;8.80;99.90
3332;DHT22;1678;50.94845400;5.30809100;2022-11-24T04:10:55;8.80;99.90
3332;DHT22;1678;50.94845400;5.30809100;2022-11-24T04:13:24;8.90;99.90
3332;DHT22;1678;50.94845400;5.30809100;2022-11-24T04:15:52;8.80;99.90
3332;DHT22;1678;50.94845400;5.30809100;2022-11-24T04:18:20;8.80;99.90
3332;DHT22;1678;50.94845400;5.30809100;2022-11-24T04:20:49;8.80;99.90
3332;DHT22;1678;50.94845400;5.30809100;2022-11-24T04:23:17;8.80;99.90
3332;DHT22;1678;50.94845400;5.30809100;2022-11-24T04:25:46;8.90;99.90
3332;DHT22;1678;50.94845400;5.30809100;2022-11-24T04:28:14;9.00;99.90
3332;DHT22;1678;50.94845400;5.30809100;2022-11-24T04:30:42;8.90;99.90
3332;DHT22;1678;50.94845400;5.30809100;2022-11-24T04:33:11;8.90;99.90
3332;DHT22;1678;50.94845400;5.30809100;2022-11-24T04:35:39;8.80;99.90
3332;DHT22;1678;50.94845400;5.30809100;2022-11-24T04:38:08;8.80;99.90
3332;DHT22;1678;50.94845400;5.30809100;2022-11-24T04:40:36;8.80;99.90
3332;DHT22;1678;50.94845400;5.30809100;2022-11-24T04:43:05;8.80;99.90
3332;DHT22;1678;50.94845400;5.30809100;2022-11-24T04:45:33;8.70;99.90
3332;DHT22;1678;50.94845400;5.30809100;2022-11-24T04:48:01;8.60;99.90
3332;DHT22;1678;50.94845400;5.30809100;2022-11-24T04:50:30;8.60;99.90
3332;DHT22;1678;50.94845400;5.30809100;2022-11-24T04:52:58;8.70;99.90
3332;DHT22;1678;50.94845400;5.30809100;2022-11-24T04:55:26;8.60;99.90
3332;DHT22;1678;50.94845400;5.30809100;2022-11-24T04:57:54;8.60;99.90
3332;DHT22;1678;50.94845400;5.30809100;2022-11-24T05:00:23;8.60;99.90
3332;DHT22;1678;50.94845400;5.30809100;2022-11-24T05:02:51;8.60;99.90
3332;DHT22;1678;50.94845400;5.30809100;2022-11-24T05:05:19;8.60;99.90
3332;DHT22;1678;50.94845400;5.30809100;2022-11-24T05:07:47;8.60;99.90
3332;DHT22;1678;50.94845400;5.30809100;2022-11-24T05:10:16;8.50;99.90
3332;DHT22;1678;50.94845400;5.30809100;2022-11-24T05:13:03;8.50;99.90
3332;DHT22;1678;50.94845400;5.30809100;2022-11-24T05:15:33;8.40;99.90
3332;DHT22;1678;50.94845400;5.30809100;2022-11-24T05:18:03;8.50;99.90
3332;DHT22;1678;50.94845400;5.30809100;2022-11-24T05:20:33;8.30;99.90
3332;DHT22;1678;50.94845400;5.30809100;2022-11-24T05:23:02;8.30;99.90
3332;DHT22;1678;50.94845400;5.30809100;2022-11-24T05:25:30;8.10;99.90
3332;DHT22;1678;50.94845400;5.30809100;2022-11-24T05:27:59;8.00;99.90
3332;DHT22;1678;50.94845400;5.30809100;2022-11-24T05:30:28;8.00;99.90
3332;DHT22;1678;50.94845400;5.30809100;2022-11-24T05:32:58;7.80;99.90
3332;DHT22;1678;50.94845400;5.30809100;2022-11-24T05:35:26;7.80;99.90
3332;DHT22;1678;50.94845400;5.30809100;2022-11-24T05:37:54;7.80;99.90
3332;DHT22;1678;50.94845400;5.30809100;2022-11-24T05:40:22;7.90;99.90
3332;DHT22;1678;50.94845400;5.30809100;2022-11-24T05:42:50;7.70;99.90
3332;DHT22;1678;50.94845400;5.30809100;2022-11-24T05:45:19;7.70;99.90
3332;DHT22;1678;50.94845400;5.30809100;2022-11-24T05:47:48;7.70;99.90
3332;DHT22;1678;50.94845400;5.30809100;2022-11-24T05:50:19;7.60;99.90
3332;DHT22;1678;50.94845400;5.30809100;2022-11-24T05:52:48;7.70;99.90
3332;DHT22;1678;50.94845400;5.30809100;2022-11-24T05:55:16;7.60;99.90
3332;DHT22;1678;50.94845400;5.30809100;2022-11-24T05:57:46;7.60;99.90
3332;DHT22;1678;50.94845400;5.30809100;2022-11-24T06:00:15;7.50;99.90
3332;DHT22;1678;50.94845400;5.30809100;2022-11-24T06:02:46;7.60;99.90
3332;DHT22;1678;50.94845400;5.30809100;2022-11-24T06:05:14;7.50;99.90
3332;DHT22;1678;50.94845400;5.30809100;2022-11-24T06:07:43;7.50;99.90
3332;DHT22;1678;50.94845400;5.30809100;2022-11-24T06:10:12;7.50;99.90
3332;DHT22;1678;50.94845400;5.30809100;2022-11-24T06:12:40;7.50;99.90
3332;DHT22;1678;50.94845400;5.30809100;2022-11-24T06:15:09;7.60;99.90
3332;DHT22;1678;50.94845400;5.30809100;2022-11-24T06:17:38;7.50;99.90
3332;DHT22;1678;50.94845400;5.30809100;2022-11-24T06:20:07;7.60;99.90
3332;DHT22;1678;50.94845400;5.30809100;2022-11-24T06:22:36;7.70;99.90
3332;DHT22;1678;50.94845400;5.30809100;2022-11-24T06:25:06;7.70;99.90
3332;DHT22;1678;50.94845400;5.30809100;2022-11-24T06:27:35;7.70;99.90
3332;DHT22;1678;50.94845400;5.30809100;2022-11-24T06:30:03;7.70;99.90
3332;DHT22;1678;50.94845400;5.30809100;2022-11-24T06:32:32;7.70;99.90
3332;DHT22;1678;50.94845400;5.30809100;2022-11-24T06:35:00;7.70;99.90
3332;DHT22;1678;50.94845400;5.30809100;2022-11-24T06:37:28;7.70;99.90
3332;DHT22;1678;50.94845400;5.30809100;2022-11-24T06:39:56;7.60;99.90
3332;DHT22;1678;50.94845400;5.30809100;2022-11-24T06:42:25;7.50;99.90
3332;DHT22;1678;50.94845400;5.30809100;2022-11-24T06:44:53;7.60;99.90
3332;DHT22;1678;50.94845400;5.30809100;2022-11-24T06:47:21;7.50;99.90
3332;DHT22;1678;50.94845400;5.30809100;2022-11-24T06:49:49;7.50;99.90
3332;DHT22;1678;50.94845400;5.30809100;2022-11-24T06:52:17;7.40;99.90
3332;DHT22;1678;50.94845400;5.30809100;2022-11-24T06:54:45;7.50;99.90
3332;DHT22;1678;50.94845400;5.30809100;2022-11-24T06:57:13;7.50;99.90
3332;DHT22;1678;50.94845400;5.30809100;2022-11-24T06:59:43;7.50;99.90
3332;DHT22;1678;50.94845400;5.30809100;2022-11-24T07:02:11;7.60;99.90
3332;DHT22;1678;50.94845400;5.30809100;2022-11-24T07:04:39;7.50;99.90
3332;DHT22;1678;50.94845400;5.30809100;2022-11-24T07:07:07;7.50;99.90
3332;DHT22;1678;50.94845400;5.30809100;2022-11-24T07:09:35;7.60;99.90
3332;DHT22;1678;50.94845400;5.30809100;2022-11-24T07:12:03;7.60;99.90
3332;DHT22;1678;50.94845400;5.30809100;2022-11-24T07:14:32;7.50;99.90
3332;DHT22;1678;50.94845400;5.30809100;2022-11-24T07:17:01;7.60;99.90
3332;DHT22;1678;50.94845400;5.30809100;2022-11-24T07:19:31;7.50;99.90
3332;DHT22;1678;50.94845400;5.30809100;2022-11-24T07:21:59;7.60;99.90
3332;DHT22;1678;50.94845400;5.30809100;2022-11-24T07:24:27;7.50;99.90
3332;DHT22;1678;50.94845400;5.30809100;2022-11-24T07:26:55;7.50;99.90
3332;DHT22;1678;50.94845400;5.30809100;2022-11-24T07:29:23;7.50;99.90
3332;DHT22;1678;50.94845400;5.30809100;2022-11-24T07:31:51;7.50;99.90
3332;DHT22;1678;50.94845400;5.30809100;2022-11-24T07:34:20;7.70;99.90
3332;DHT22;1678;50.94845400;5.30809100;2022-11-24T07:36:48;7.60;99.90
3332;DHT22;1678;50.94845400;5.30809100;2022-11-24T07:39:16;7.60;99.90
3332;DHT22;1678;50.94845400;5.30809100;2022-11-24T07:41:44;7.60;99.90
3332;DHT22;1678;50.94845400;5.30809100;2022-11-24T07:44:12;7.50;99.90
3332;DHT22;1678;50.94845400;5.30809100;2022-11-24T07:46:41;7.60;99.90
3332;DHT22;1678;50.94845400;5.30809100;2022-11-24T07:49:09;7.50;99.90
3332;DHT22;1678;50.94845400;5.30809100;2022-11-24T07:51:38;7.60;99.90
3332;DHT22;1678;50.94845400;5.30809100;2022-11-24T07:54:06;7.50;99.90
3332;DHT22;1678;50.94845400;5.30809100;2022-11-24T07:56:34;7.60;99.90
3332;DHT22;1678;50.94845400;5.30809100;2022-11-24T07:59:02;7.60;99.90
3332;DHT22;1678;50.94845400;5.30809100;2022-11-24T08:01:31;7.60;99.90
3332;DHT22;1678;50.94845400;5.30809100;2022-11-24T08:04:00;7.60;99.90
3332;DHT22;1678;50.94845400;5.30809100;2022-11-24T08:06:28;7.60;99.90
3332;DHT22;1678;50.94845400;5.30809100;2022-11-24T08:09:09;7.60;99.90
3332;DHT22;1678;50.94845400;5.30809100;2022-11-24T08:11:37;7.60;99.90
3332;DHT22;1678;50.94845400;5.30809100;2022-11-24T08:14:05;7.70;99.90
3332;DHT22;1678;50.94845400;5.30809100;2022-11-24T08:16:33;7.70;99.90
3332;DHT22;1678;50.94845400;5.30809100;2022-11-24T08:19:01;7.80;99.90
3332;DHT22;1678;50.94845400;5.30809100;2022-11-24T08:21:29;7.70;99.90
3332;DHT22;1678;50.94845400;5.30809100;2022-11-24T08:23:58;7.80;99.90
3332;DHT22;1678;50.94845400;5.30809100;2022-11-24T08:26:27;7.80;99.90
3332;DHT22;1678;50.94845400;5.30809100;2022-11-24T08:28:57;7.90;99.90
3332;DHT22;1678;50.94845400;5.30809100;2022-11-24T08:31:27;7.90;99.90
3332;DHT22;1678;50.94845400;5.30809100;2022-11-24T08:34:00;7.90;99.90
3332;DHT22;1678;50.94845400;5.30809100;2022-11-24T08:36:28;8.00;99.90
3332;DHT22;1678;50.94845400;5.30809100;2022-11-24T08:38:58;8.00;99.90
3332;DHT22;1678;50.94845400;5.30809100;2022-11-24T08:41:28;7.90;99.90
3332;DHT22;1678;50.94845400;5.30809100;2022-11-24T08:43:56;8.00;99.90
3332;DHT22;1678;50.94845400;5.30809100;2022-11-24T08:46:24;8.00;99.90
3332;DHT22;1678;50.94845400;5.30809100;2022-11-24T08:48:54;8.10;99.90
3332;DHT22;1678;50.94845400;5.30809100;2022-11-24T08:51:24;8.10;99.90
3332;DHT22;1678;50.94845400;5.30809100;2022-11-24T08:53:53;8.20;99.90
3332;DHT22;1678;50.94845400;5.30809100;2022-11-24T08:56:22;8.20;99.90
3332;DHT22;1678;50.94845400;5.30809100;2022-11-24T08:58:52;8.20;99.90
3332;DHT22;1678;50.94845400;5.30809100;2022-11-24T09:01:21;8.30;99.90
3332;DHT22;1678;50.94845400;5.30809100;2022-11-24T09:03:50;8.20;99.90
3332;DHT22;1678;50.94845400;5.30809100;2022-11-24T09:06:19;8.20;99.90
3332;DHT22;1678;50.94845400;5.30809100;2022-11-24T09:08:49;8.30;99.90
3332;DHT22;1678;50.94845400;5.30809100;2022-11-24T09:11:17;8.40;99.90
3332;DHT22;1678;50.94845400;5.30809100;2022-11-24T09:13:45;8.40;99.90
3332;DHT22;1678;50.94845400;5.30809100;2022-11-24T09:16:16;8.50;99.90
3332;DHT22;1678;50.94845400;5.30809100;2022-11-24T09:18:45;8.60;99.90
3332;DHT22;1678;50.94845400;5.30809100;2022-11-24T09:21:15;8.60;99.90
3332;DHT22;1678;50.94845400;5.30809100;2022-11-24T09:23:44;8.60;99.90
3332;DHT22;1678;50.94845400;5.30809100;2022-11-24T09:26:15;8.70;99.90
3332;DHT22;1678;50.94845400;5.30809100;2022-11-24T09:28:44;8.70;99.90
3332;DHT22;1678;50.94845400;5.30809100;2022-11-24T09:31:15;8.70;99.90
3332;DHT22;1678;50.94845400;5.30809100;2022-11-24T09:33:44;8.80;99.90
3332;DHT22;1678;50.94845400;5.30809100;2022-11-24T09:36:13;8.80;99.90
3332;DHT22;1678;50.94845400;5.30809100;2022-11-24T09:38:41;8.80;99.90
3332;DHT22;1678;50.94845400;5.30809100;2022-11-24T09:47:19;8.80;99.90
3332;DHT22;1678;50.94845400;5.30809100;2022-11-24T09:49:57;9.00;99.90
3332;DHT22;1678;50.94845400;5.30809100;2022-11-24T09:52:38;9.00;99.90
3332;DHT22;1678;50.94845400;5.30809100;2022-11-24T09:55:24;9.10;99.90
3332;DHT22;1678;50.94845400;5.30809100;2022-11-24T09:58:00;9.20;99.90
3332;DHT22;1678;50.94845400;5.30809100;2022-11-24T10:00:30;9.10;99.90
3332;DHT22;1678;50.94845400;5.30809100;2022-11-24T10:03:01;9.10;99.90
3332;DHT22;1678;50.94845400;5.30809100;2022-11-24T10:05:33;9.20;99.90
3332;DHT22;1678;50.94845400;5.30809100;2022-11-24T10:08:11;9.20;99.90
3332;DHT22;1678;50.94845400;5.30809100;2022-11-24T10:10:50;9.30;99.90
3332;DHT22;1678;50.94845400;5.30809100;2022-11-24T10:13:32;9.30;99.90
3332;DHT22;1678;50.94845400;5.30809100;2022-11-24T10:16:08;9.30;99.90
3332;DHT22;1678;50.94845400;5.30809100;2022-11-24T10:18:52;9.40;99.90
3332;DHT22;1678;50.94845400;5.30809100;2022-11-24T10:21:37;9.40;99.90
3332;DHT22;1678;50.94845400;5.30809100;2022-11-24T10:24:23;9.40;99.90
3332;DHT22;1678;50.94845400;5.30809100;2022-11-24T10:26:57;9.50;99.90
3332;DHT22;1678;50.94845400;5.30809100;2022-11-24T10:29:30;9.50;99.90
3332;DHT22;1678;50.94845400;5.30809100;2022-11-24T10:32:04;9.50;99.90
3332;DHT22;1678;50.94845400;5.30809100;2022-11-24T10:34:37;9.60;99.90
3332;DHT22;1678;50.94845400;5.30809100;2022-11-24T10:37:12;9.60;99.90
3332;DHT22;1678;50.94845400;5.30809100;2022-11-24T10:39:50;9.70;99.90
3332;DHT22;1678;50.94845400;5.30809100;2022-11-24T10:42:28;9.60;99.90
3332;DHT22;1678;50.94845400;5.30809100;2022-11-24T10:45:00;9.60;99.90
3332;DHT22;1678;50.94845400;5.30809100;2022-11-24T10:47:29;9.70;99.90
3332;DHT22;1678;50.94845400;5.30809100;2022-11-24T10:50:03;9.90;99.90
3332;DHT22;1678;50.94845400;5.30809100;2022-11-24T10:52:37;9.80;99.90
3332;DHT22;1678;50.94845400;5.30809100;2022-11-24T10:55:08;9.90;99.90
3332;DHT22;1678;50.94845400;5.30809100;2022-11-24T10:57:38;10.00;99.90
3332;DHT22;1678;50.94845400;5.30809100;2022-11-24T11:00:31;10.00;99.90
3332;DHT22;1678;50.94845400;5.30809100;2022-11-24T11:03:18;10.10;99.90
3332;DHT22;1678;50.94845400;5.30809100;2022-11-24T11:05:50;10.10;99.90
3332;DHT22;1678;50.94845400;5.30809100;2022-11-24T11:08:22;10.10;99.90
3332;DHT22;1678;50.94845400;5.30809100;2022-11-24T11:11:11;10.10;99.90
3332;DHT22;1678;50.94845400;5.30809100;2022-11-24T11:13:47;10.10;99.90
3332;DHT22;1678;50.94845400;5.30809100;2022-11-24T11:16:32;10.10;99.90
3332;DHT22;1678;50.94845400;5.30809100;2022-11-24T11:19:03;10.20;99.90
3332;DHT22;1678;50.94845400;5.30809100;2022-11-24T11:21:59;10.20;99.90
3332;DHT22;1678;50.94845400;5.30809100;2022-11-24T11:24:28;10.30;99.90
3332;DHT22;1678;50.94845400;5.30809100;2022-11-24T11:27:00;10.40;99.90
3332;DHT22;1678;50.94845400;5.30809100;2022-11-24T11:29:30;10.70;99.90
3332;DHT22;1678;50.94845400;5.30809100;2022-11-24T11:32:20;10.80;99.90
3332;DHT22;1678;50.94845400;5.30809100;2022-11-24T11:35:10;11.00;99.90
3332;DHT22;1678;50.94845400;5.30809100;2022-11-24T11:37:40;11.10;99.90
3332;DHT22;1678;50.94845400;5.30809100;2022-11-24T11:40:15;11.20;99.90
3332;DHT22;1678;50.94845400;5.30809100;2022-11-24T11:42:48;11.10;99.90
3332;DHT22;1678;50.94845400;5.30809100;2022-11-24T11:45:33;11.00;99.90
3332;DHT22;1678;50.94845400;5.30809100;2022-11-24T11:48:16;10.80;99.90
3332;DHT22;1678;50.94845400;5.30809100;2022-11-24T11:50:50;10.90;99.90
3332;DHT22;1678;50.94845400;5.30809100;2022-11-24T11:53:43;10.90;99.90
3332;DHT22;1678;50.94845400;5.30809100;2022-11-24T11:56:20;11.00;99.90
3332;DHT22;1678;50.94845400;5.30809100;2022-11-24T12:02:31;10.90;99.90
3332;DHT22;1678;50.94845400;5.30809100;2022-11-24T12:05:08;10.90;99.90
3332;DHT22;1678;50.94845400;5.30809100;2022-11-24T12:07:47;11.00;99.90
3332;DHT22;1678;50.94845400;5.30809100;2022-11-24T12:10:26;11.00;99.90
3332;DHT22;1678;50.94845400;5.30809100;2022-11-24T12:16:10;11.00;99.90
3332;DHT22;1678;50.94845400;5.30809100;2022-11-24T12:18:48;10.90;99.90
3332;DHT22;1678;50.94845400;5.30809100;2022-11-24T12:21:30;11.00;99.90
3332;DHT22;1678;50.94845400;5.30809100;2022-11-24T12:24:09;11.10;99.90
3332;DHT22;1678;50.94845400;5.30809100;2022-11-24T12:26:45;11.00;99.90
3332;DHT22;1678;50.94845400;5.30809100;2022-11-24T12:32:27;11.10;99.90
3332;DHT22;1678;50.94845400;5.30809100;2022-11-24T12:35:01;11.00;99.90
3332;DHT22;1678;50.94845400;5.30809100;2022-11-24T12:37:44;11.00;99.90
3332;DHT22;1678;50.94845400;5.30809100;2022-11-24T12:40:22;11.10;99.90
3332;DHT22;1678;50.94845400;5.30809100;2022-11-24T12:43:00;11.10;99.90
3332;DHT22;1678;50.94845400;5.30809100;2022-11-24T12:45:36;11.20;99.90
3332;DHT22;1678;50.94845400;5.30809100;2022-11-24T12:48:20;11.20;99.90
3332;DHT22;1678;50.94845400;5.30809100;2022-11-24T12:50:55;11.20;99.90
3332;DHT22;1678;50.94845400;5.30809100;2022-11-24T12:53:26;11.20;99.90
3332;DHT22;1678;50.94845400;5.30809100;2022-11-24T12:55:57;11.10;99.90
3332;DHT22;1678;50.94845400;5.30809100;2022-11-24T12:58:40;11.10;99.90
3332;DHT22;1678;50.94845400;5.30809100;2022-11-24T13:01:15;11.00;99.90
3332;DHT22;1678;50.94845400;5.30809100;2022-11-24T13:03:57;11.30;99.90
3332;DHT22;1678;50.94845400;5.30809100;2022-11-24T13:06:28;11.00;99.90
3332;DHT22;1678;50.94845400;5.30809100;2022-11-24T13:09:07;11.00;99.90
3332;DHT22;1678;50.94845400;5.30809100;2022-11-24T13:11:38;11.20;99.90
3332;DHT22;1678;50.94845400;5.30809100;2022-11-24T13:14:13;11.10;99.90
3332;DHT22;1678;50.94845400;5.30809100;2022-11-24T13:16:50;11.00;99.90
3332;DHT22;1678;50.94845400;5.30809100;2022-11-24T13:19:39;11.00;99.90
3332;DHT22;1678;50.94845400;5.30809100;2022-11-24T13:22:15;10.90;99.90
3332;DHT22;1678;50.94845400;5.30809100;2022-11-24T13:24:45;10.90;99.90
3332;DHT22;1678;50.94845400;5.30809100;2022-11-24T13:27:41;11.00;99.90
3332;DHT22;1678;50.94845400;5.30809100;2022-11-24T13:33:31;11.20;99.90
3332;DHT22;1678;50.94845400;5.30809100;2022-11-24T13:36:27;11.10;99.90
3332;DHT22;1678;50.94845400;5.30809100;2022-11-24T13:38:57;11.30;99.90
3332;DHT22;1678;50.94845400;5.30809100;2022-11-24T13:44:44;11.30;99.90
3332;DHT22;1678;50.94845400;5.30809100;2022-11-24T13:50:22;11.20;99.90
3332;DHT22;1678;50.94845400;5.30809100;2022-11-24T13:52:53;11.20;99.90
3332;DHT22;1678;50.94845400;5.30809100;2022-11-24T13:55:32;11.10;99.90
3332;DHT22;1678;50.94845400;5.30809100;2022-11-24T13:58:26;11.10;99.90
3332;DHT22;1678;50.94845400;5.30809100;2022-11-24T14:01:09;11.20;99.90
3332;DHT22;1678;50.94845400;5.30809100;2022-11-24T14:03:42;11.10;99.90
3332;DHT22;1678;50.94845400;5.30809100;2022-11-24T14:06:37;11.00;99.90
3332;DHT22;1678;50.94845400;5.30809100;2022-11-24T14:09:18;11.00;99.90
3332;DHT22;1678;50.94845400;5.30809100;2022-11-24T14:12:03;10.80;99.90
3332;DHT22;1678;50.94845400;5.30809100;2022-11-24T14:14:33;10.80;99.90
3332;DHT22;1678;50.94845400;5.30809100;2022-11-24T14:17:06;10.70;99.90
3332;DHT22;1678;50.94845400;5.30809100;2022-11-24T14:19:34;10.70;99.90
3332;DHT22;1678;50.94845400;5.30809100;2022-11-24T14:22:04;10.70;99.90
3332;DHT22;1678;50.94845400;5.30809100;2022-11-24T14:24:33;10.70;99.90
3332;DHT22;1678;50.94845400;5.30809100;2022-11-24T14:27:12;10.70;99.90
3332;DHT22;1678;50.94845400;5.30809100;2022-11-24T14:29:51;10.60;99.90
3332;DHT22;1678;50.94845400;5.30809100;2022-11-24T14:32:20;10.70;99.90
3332;DHT22;1678;50.94845400;5.30809100;2022-11-24T14:34:48;10.60;99.90
3332;DHT22;1678;50.94845400;5.30809100;2022-11-24T14:37:19;10.60;99.90
3332;DHT22;1678;50.94845400;5.30809100;2022-11-24T14:39:47;10.70;99.90
3332;DHT22;1678;50.94845400;5.30809100;2022-11-24T14:42:18;10.60;99.90
3332;DHT22;1678;50.94845400;5.30809100;2022-11-24T14:44:50;10.60;99.90